Zalophus — WDG7231 — position and weather

sailwx.info

Track history (hours):
 
Tides and Currents Weather Stations Pressure Air Temp Water Temp Dewpoint Dewpoint Depression Visibility Wind Speed Wind Dir Waves Ship Positions

Zalophus

Owner: Golden Gate Scenic Steamship Corp, San Francisco, CA. More information available from US FCC via Universal Licensing System and Coast Guard Vessel Documentation Center.

Last reported at 2018-Jul-17 04:00 UTC. Time now 2018-Jul-17 04:11 UTC.
Position N 37°49' W 122°25'.

Length 47 m; draft 3 m.

Type: Passenger vessel. MMSI: 367565170.

Date/timePositionNaut miles runAvg speedWind from/ knotsBaromVisibWave heightAir tempDewpointWater temp
2018-Jul-17 04:00N 37°49' W 122°25'3 5.5
2018-Jul-17 03:30N 37°49' W 122°28'3 6.0
2018-Jul-17 03:00N 37°52' W 122°29'3 6.3
2018-Jul-17 02:30N 37°52' W 122°25'3 6.4
2018-Jul-17 02:00N 37°49' W 122°25'0 0.0
2018-Jul-17 01:30N 37°49' W 122°25'0 0.0
2018-Jul-17 01:00N 37°49' W 122°25'0 0.1
2018-Jul-17 00:31N 37°49' W 122°25'3 2.6
2018-Jul-16 23:30N 37°49' W 122°28'3 5.3
2018-Jul-16 23:00N 37°49' W 122°25'1 2.8
2018-Jul-16 22:30N 37°48' W 122°23'2 4.7
2018-Jul-16 22:00N 37°50' W 122°25'1 2.5
2018-Jul-16 21:30N 37°49' W 122°26'1 2.3
2018-Jul-16 21:00N 37°49' W 122°25'2 4.8
2018-Jul-16 20:31N 37°47' W 122°23'5 9.0
2018-Jul-16 20:00N 37°49' W 122°27'2 4.4
2018-Jul-16 19:30N 37°49' W 122°25'0 0.0
2018-Jul-16 19:00N 37°49' W 122°25'2 4.3
2018-Jul-16 18:30N 37°48' W 122°22'5 9.1
2018-Jul-16 18:00N 37°50' W 122°28'2 4.9
2018-Jul-16 17:30N 37°49' W 122°25'1 1.7
2018-Jul-16 17:01N 37°49' W 122°25'2 3.8
2018-Jul-16 16:30N 37°49' W 122°27'2 3.8
2018-Jul-16 16:00N 37°49' W 122°25'0 0.0
2018-Jul-16 04:09N 37°49' W 122°25'0 0.0
2018-Jul-16 04:00N 37°49' W 122°25'3 6.1
2018-Jul-16 03:30N 37°49' W 122°29'3 6.3
2018-Jul-16 03:01N 37°52' W 122°30'4 7.0
2018-Jul-16 02:30N 37°52' W 122°25'3 6.6
2018-Jul-16 02:00N 37°49' W 122°25'0 0.0
2018-Jul-16 01:30N 37°49' W 122°25'0 0.0
2018-Jul-16 01:01N 37°49' W 122°25'0 0.0
2018-Jul-16 00:30N 37°49' W 122°25'2 3.8
2018-Jul-15 23:59N 37°48' W 122°23'4 8.7
2018-Jul-15 23:30N 37°49' W 122°28'2 4.5
2018-Jul-15 23:00N 37°49' W 122°25'1 2.4
2018-Jul-15 22:30N 37°48' W 122°24'2 3.0
2018-Jul-15 22:00N 37°49' W 122°25'2 3.5
2018-Jul-15 21:30N 37°49' W 122°27'1 3.0
2018-Jul-15 21:00N 37°49' W 122°25'2 4.4
2018-Jul-15 20:31N 37°47' W 122°23'5 9.3
2018-Jul-15 20:01N 37°49' W 122°28'3 5.1
2018-Jul-15 19:30N 37°49' W 122°25'0 0.0
2018-Jul-15 19:01N 37°49' W 122°25'2 3.5
2018-Jul-15 18:30N 37°48' W 122°23'5 9.6
2018-Jul-15 18:00N 37°49' W 122°29'3 6.0
2018-Jul-15 17:30N 37°49' W 122°25'1 2.5
2018-Jul-15 17:00N 37°50' W 122°25'1 2.5
2018-Jul-15 16:30N 37°49' W 122°26'1 2.5
2018-Jul-15 16:00N 37°49' W 122°25'0 0.0
2018-Jul-15 04:13N 37°49' W 122°25'0 0.0
2018-Jul-15 04:00N 37°49' W 122°25'3 5.7
2018-Jul-15 03:30N 37°50' W 122°28'2 3.9
2018-Jul-15 03:00N 37°52' W 122°28'3 5.2
2018-Jul-15 02:30N 37°52' W 122°25'3 5.9
2018-Jul-15 02:00N 37°49' W 122°25'0 0.0
2018-Jul-15 01:30N 37°49' W 122°25'0 0.0
2018-Jul-15 01:00N 37°49' W 122°25'0 0.4
2018-Jul-15 00:30N 37°49' W 122°25'1 1.8
2018-Jul-15 00:00N 37°49' W 122°24'4 7.5
2018-Jul-14 23:30N 37°49' W 122°29'3 5.9
2018-Jul-14 23:00N 37°49' W 122°25'2 3.4
2018-Jul-14 22:30N 37°48' W 122°23'3 6.1
2018-Jul-14 22:00N 37°50' W 122°26'1 1.9
2018-Jul-14 21:30N 37°49' W 122°26'1 1.4
2018-Jul-14 21:00N 37°49' W 122°25'1 3.0
2018-Jul-14 20:31N 37°48' W 122°23'4 8.5
2018-Jul-14 20:00N 37°49' W 122°28'3 5.6
2018-Jul-14 19:30N 37°49' W 122°25'0 0.0
2018-Jul-14 19:00N 37°49' W 122°25'1 2.9
2018-Jul-14 18:30N 37°48' W 122°23'4 8.6
2018-Jul-14 18:00N 37°49' W 122°28'3 5.7
2018-Jul-14 17:30N 37°49' W 122°25'1 2.0
2018-Jul-14 17:00N 37°50' W 122°25'1 2.8
2018-Jul-14 16:30N 37°49' W 122°27'1 2.8
2018-Jul-14 16:00N 37°49' W 122°25'0 0.0
2018-Jul-14 04:09N 37°49' W 122°25'0 0.0
2018-Jul-14 04:01N 37°49' W 122°25'3 5.8
2018-Jul-14 03:30N 37°49' W 122°28'2 4.4
2018-Jul-14 03:00N 37°52' W 122°29'3 5.9
2018-Jul-14 02:30N 37°51' W 122°25'3 5.6
2018-Jul-14 02:00N 37°49' W 122°25'0 0.0
2018-Jul-14 01:31N 37°49' W 122°25'0 0.0
2018-Jul-14 01:00N 37°49' W 122°25'0 0.0
2018-Jul-14 00:30N 37°49' W 122°25'2 3.4
2018-Jul-14 00:00N 37°48' W 122°23'4 8.2
2018-Jul-13 23:30N 37°49' W 122°28'2 4.8
2018-Jul-13 23:01N 37°49' W 122°25'1 2.1
2018-Jul-13 22:30N 37°48' W 122°24'2 4.0
2018-Jul-13 22:00N 37°50' W 122°25'1 2.7
2018-Jul-13 21:30N 37°49' W 122°27'1 2.9
2018-Jul-13 21:00N 37°49' W 122°25'2 3.1
2018-Jul-13 20:30N 37°48' W 122°23'4 8.3
2018-Jul-13 20:00N 37°49' W 122°28'3 5.1
2018-Jul-13 19:31N 37°49' W 122°25'0 0.0
2018-Jul-13 19:00N 37°49' W 122°25'2 3.1
2018-Jul-13 18:30N 37°48' W 122°23'4 8.9
2018-Jul-13 18:00N 37°49' W 122°28'3 5.7
2018-Jul-13 17:30N 37°49' W 122°25'1 2.1
2018-Jul-13 17:00N 37°50' W 122°25'1 2.6
2018-Jul-13 16:30N 37°49' W 122°27'1 2.8
2018-Jul-13 16:00N 37°49' W 122°25'0 0.0
2018-Jul-13 04:09N 37°49' W 122°25'0 0.0
2018-Jul-13 04:00N 37°49' W 122°25'3 6.7
2018-Jul-13 03:31N 37°49' W 122°29'3 5.4
2018-Jul-13 03:00N 37°52' W 122°29'3 6.2
2018-Jul-13 02:30N 37°52' W 122°25'3 5.9
2018-Jul-13 02:00N 37°49' W 122°25'0 0.0
2018-Jul-13 01:30N 37°49' W 122°25'0 0.0
2018-Jul-13 01:00N 37°49' W 122°25'0 0.0
2018-Jul-13 00:30N 37°49' W 122°25'2 3.8
2018-Jul-13 00:00N 37°48' W 122°23'4 9.0
2018-Jul-12 23:30N 37°49' W 122°28'3 5.3
2018-Jul-12 23:00N 37°49' W 122°25'1 2.6
2018-Jul-12 22:30N 37°48' W 122°23'2 4.9
2018-Jul-12 22:00N 37°50' W 122°25'1 2.1
2018-Jul-12 21:30N 37°49' W 122°26'1 1.6
2018-Jul-12 21:00N 37°49' W 122°25'2 3.0
2018-Jul-12 20:30N 37°49' W 122°23'5 9.6
2018-Jul-12 20:01N 37°49' W 122°29'3 6.6
2018-Jul-12 19:30N 37°49' W 122°25'0 0.0
2018-Jul-12 19:00N 37°49' W 122°25'2 4.7
2018-Jul-12 18:30N 37°47' W 122°23'5 9.9
2018-Jul-12 18:01N 37°49' W 122°28'3 5.4
2018-Jul-12 17:30N 37°49' W 122°25'1 1.9
2018-Jul-12 17:00N 37°50' W 122°25'1 2.9
2018-Jul-12 16:31N 37°49' W 122°26'1 2.4
2018-Jul-12 16:00N 37°49' W 122°25'0 0.0
2018-Jul-12 04:12N 37°49' W 122°25'0 0.0
2018-Jul-12 03:59N 37°49' W 122°25'4 8.1
2018-Jul-12 03:30N 37°49' W 122°30'3 5.3
2018-Jul-12 03:00N 37°52' W 122°29'3 6.2
2018-Jul-12 02:30N 37°51' W 122°25'2 4.9
2018-Jul-12 02:00N 37°49' W 122°25'0 0.0
2018-Jul-12 01:30N 37°49' W 122°25'0 0.0
2018-Jul-12 01:00N 37°49' W 122°25'0 0.0
2018-Jul-12 00:30N 37°49' W 122°25'2 3.5
2018-Jul-12 00:00N 37°48' W 122°23'4 7.7
2018-Jul-11 23:30N 37°49' W 122°27'2 4.2
2018-Jul-11 23:00N 37°49' W 122°25'1 2.6
2018-Jul-11 22:30N 37°48' W 122°23'2 4.2
2018-Jul-11 22:00N 37°50' W 122°25'2 4.0
2018-Jul-11 21:30N 37°49' W 122°27'2 4.1
2018-Jul-11 21:00N 37°49' W 122°25'2 4.0
2018-Jul-11 20:30N 37°48' W 122°23'4 8.3
2018-Jul-11 20:00N 37°49' W 122°27'2 4.4
2018-Jul-11 19:30N 37°49' W 122°25'0 0.0
2018-Jul-11 19:00N 37°49' W 122°25'2 4.5
2018-Jul-11 18:30N 37°47' W 122°23'4 8.5
2018-Jul-11 18:00N 37°49' W 122°27'2 4.1
2018-Jul-11 17:30N 37°49' W 122°25'1 1.6
2018-Jul-11 17:00N 37°49' W 122°24'2 4.1
2018-Jul-11 16:30N 37°49' W 122°27'2 3.4
2018-Jul-11 16:00N 37°49' W 122°25'0 0.0
2018-Jul-11 04:12N 37°49' W 122°25'0 0.0
2018-Jul-11 04:00N 37°49' W 122°25'3 6.2
2018-Jul-11 03:30N 37°49' W 122°29'3 5.5
2018-Jul-11 03:00N 37°52' W 122°29'3 6.7
2018-Jul-11 02:30N 37°51' W 122°25'3 5.2
2018-Jul-11 02:00N 37°49' W 122°25'0 0.0
2018-Jul-11 01:30N 37°49' W 122°25'0 0.0
2018-Jul-11 01:00N 37°49' W 122°25'0 0.0
2018-Jul-11 00:30N 37°49' W 122°25'2 3.8
2018-Jul-11 00:00N 37°48' W 122°23'4 8.3
2018-Jul-10 23:30N 37°49' W 122°28'2 4.4
2018-Jul-10 23:00N 37°49' W 122°25'1 1.9
2018-Jul-10 22:30N 37°48' W 122°24'1 2.5
2018-Jul-10 22:00N 37°49' W 122°25'2 4.1
2018-Jul-10 21:30N 37°49' W 122°27'2 3.7
2018-Jul-10 21:00N 37°49' W 122°25'2 3.1
2018-Jul-10 20:30N 37°48' W 122°23'4 8.2
2018-Jul-10 20:00N 37°49' W 122°28'3 5.1
2018-Jul-10 19:30N 37°49' W 122°25'0 0.0
2018-Jul-10 19:00N 37°49' W 122°25'0 0.0
2018-Jul-10 18:30N 37°49' W 122°25'1 2.6
2018-Jul-10 18:00N 37°50' W 122°25'0 0.4
2018-Jul-10 17:30N 37°50' W 122°25'0 0.7
2018-Jul-10 17:00N 37°50' W 122°25'2 4.8
2018-Jul-10 16:30N 37°50' W 122°28'1 2.5
2018-Jul-10 16:00N 37°49' W 122°27'2 3.5
2018-Jul-10 15:30N 37°49' W 122°25'0 0.0
2018-Jul-10 15:00N 37°49' W 122°25'0 0.0
2018-Jul-10 14:30N 37°49' W 122°25'0 0.0
2018-Jul-10 14:00N 37°49' W 122°25'0 0.0
2018-Jul-10 13:30N 37°49' W 122°25'0 0.0
2018-Jul-10 13:00N 37°49' W 122°25'0 0.0
2018-Jul-10 12:30N 37°49' W 122°25'0 0.0
2018-Jul-10 04:03N 37°49' W 122°25'0 0.0
2018-Jul-10 04:00N 37°49' W 122°25'3 6.0
2018-Jul-10 03:30N 37°49' W 122°29'3 5.8
2018-Jul-10 03:00N 37°52' W 122°29'3 6.2
2018-Jul-10 02:30N 37°52' W 122°25'3 6.1
2018-Jul-10 02:00N 37°49' W 122°25'0 0.0
2018-Jul-10 01:30N 37°49' W 122°25'0 0.0
2018-Jul-10 01:00N 37°49' W 122°25'0 0.0
2018-Jul-10 00:30N 37°49' W 122°25'2 4.6
2018-Jul-10 00:00N 37°47' W 122°23'4 8.4
2018-Jul-09 23:31N 37°49' W 122°27'2 3.8
2018-Jul-09 23:00N 37°49' W 122°25'1 2.2
2018-Jul-09 22:29N 37°48' W 122°24'1 3.0
2018-Jul-09 22:00N 37°49' W 122°25'2 4.3
2018-Jul-09 21:31N 37°49' W 122°27'2 3.7
2018-Jul-09 21:00N 37°49' W 122°25'2 3.9
2018-Jul-09 20:31N 37°48' W 122°23'4 8.6
2018-Jul-09 20:00N 37°49' W 122°28'2 4.7
2018-Jul-09 19:30N 37°49' W 122°25'0 0.0
2018-Jul-09 18:59N 37°49' W 122°25'2 3.9
2018-Jul-09 18:30N 37°48' W 122°23'5 9.1
2018-Jul-09 18:00N 37°50' W 122°28'3 5.3
2018-Jul-09 17:30N 37°49' W 122°25'1 1.8
2018-Jul-09 17:00N 37°49' W 122°25'2 3.5
2018-Jul-09 16:30N 37°49' W 122°27'2 3.2
2018-Jul-09 15:56N 37°49' W 122°25'0 0.0
2018-Jul-09 04:19N 37°49' W 122°25'0 0.6
2018-Jul-09 04:00N 37°49' W 122°25'3 5.6
2018-Jul-09 03:31N 37°49' W 122°29'3 5.3
2018-Jul-09 03:00N 37°52' W 122°29'3 5.8
2018-Jul-09 02:30N 37°52' W 122°25'3 6.1
2018-Jul-09 02:00N 37°49' W 122°25'0 0.0
2018-Jul-09 01:30N 37°49' W 122°25'0 0.0
2018-Jul-09 01:00N 37°49' W 122°25'0 0.0
2018-Jul-09 00:30N 37°49' W 122°25'2 4.6
2018-Jul-09 00:00N 37°47' W 122°23'5 9.1
2018-Jul-08 23:30N 37°49' W 122°28'2 4.6
2018-Jul-08 23:00N 37°49' W 122°25'1 2.1
2018-Jul-08 22:30N 37°48' W 122°24'1 2.7
2018-Jul-08 22:00N 37°49' W 122°25'2 4.2
2018-Jul-08 21:30N 37°49' W 122°27'2 3.9
2018-Jul-08 21:00N 37°49' W 122°25'2 4.2
2018-Jul-08 20:30N 37°47' W 122°23'4 8.1
2018-Jul-08 20:00N 37°50' W 122°27'2 3.9
2018-Jul-08 19:30N 37°49' W 122°25'0 0.0
2018-Jul-08 19:00N 37°49' W 122°25'1 2.6
2018-Jul-08 18:30N 37°49' W 122°23'4 7.9
2018-Jul-08 18:00N 37°49' W 122°28'3 5.6
2018-Jul-08 17:30N 37°49' W 122°25'1 1.9
2018-Jul-08 17:00N 37°50' W 122°25'1 2.9
2018-Jul-08 16:30N 37°49' W 122°27'2 3.3
2018-Jul-08 16:00N 37°49' W 122°25'0 0.0
2018-Jul-08 04:13N 37°49' W 122°25'0 0.2
2018-Jul-08 04:00N 37°49' W 122°25'3 5.6
2018-Jul-08 03:30N 37°50' W 122°28'2 3.9
2018-Jul-08 03:00N 37°52' W 122°28'3 5.4
2018-Jul-08 02:30N 37°51' W 122°25'3 5.6
2018-Jul-08 02:00N 37°49' W 122°25'0 0.0
2018-Jul-08 01:31N 37°49' W 122°25'0 0.0
2018-Jul-08 01:01N 37°49' W 122°25'0 0.8
2018-Jul-08 00:31N 37°49' W 122°25'0 0.9
2018-Jul-08 00:01N 37°49' W 122°24'3 5.9
2018-Jul-07 23:30N 37°49' W 122°28'2 4.9
2018-Jul-07 23:01N 37°49' W 122°25'2 3.2
2018-Jul-07 22:31N 37°48' W 122°23'3 5.7
2018-Jul-07 22:01N 37°50' W 122°26'1 1.7
2018-Jul-07 21:31N 37°49' W 122°26'1 1.8
2018-Jul-07 21:00N 37°49' W 122°25'1 2.6
2018-Jul-07 20:30N 37°48' W 122°23'4 8.3
2018-Jul-07 20:01N 37°49' W 122°28'3 5.6
2018-Jul-07 19:30N 37°49' W 122°25'0 0.0
2018-Jul-07 19:00N 37°49' W 122°25'1 2.3
2018-Jul-07 18:30N 37°49' W 122°23'4 8.1
2018-Jul-07 18:00N 37°49' W 122°29'3 6.1
2018-Jul-07 17:31N 37°49' W 122°25'1 2.1
2018-Jul-07 17:01N 37°50' W 122°25'2 3.1
2018-Jul-07 16:30N 37°49' W 122°27'2 3.4
2018-Jul-07 16:00N 37°49' W 122°25'0 0.0
2018-Jul-07 04:18N 37°49' W 122°25'0 0.0
2018-Jul-07 04:00N 37°49' W 122°25'  
Track history (hours):
 
Tides and Currents Weather Stations Pressure Air Temp Water Temp Dewpoint Dewpoint Depression Visibility Wind Speed Wind Dir Waves Ship Positions

Zalophus

Owner: Golden Gate Scenic Steamship Corp, San Francisco, CA. More information available from US FCC via Universal Licensing System and Coast Guard Vessel Documentation Center.

Last reported at 2018-Jul-17 04:00 UTC. Time now 2018-Jul-17 04:11 UTC.
Position N 37°49' W 122°25'.

Length 47 m; draft 3 m.

Type: Passenger vessel. MMSI: 367565170.

Date/timePositionNaut miles runAvg speedWind from/ knotsBaromVisibWave heightAir tempDewpointWater temp
2018-Jul-17 04:00N 37°49' W 122°25'3 5.5
2018-Jul-17 03:30N 37°49' W 122°28'3 6.0
2018-Jul-17 03:00N 37°52' W 122°29'3 6.3
2018-Jul-17 02:30N 37°52' W 122°25'3 6.4
2018-Jul-17 02:00N 37°49' W 122°25'0 0.0
2018-Jul-17 01:30N 37°49' W 122°25'0 0.0
2018-Jul-17 01:00N 37°49' W 122°25'0 0.1
2018-Jul-17 00:31N 37°49' W 122°25'3 2.6
2018-Jul-16 23:30N 37°49' W 122°28'3 5.3
2018-Jul-16 23:00N 37°49' W 122°25'1 2.8
2018-Jul-16 22:30N 37°48' W 122°23'2 4.7
2018-Jul-16 22:00N 37°50' W 122°25'1 2.5
2018-Jul-16 21:30N 37°49' W 122°26'1 2.3
2018-Jul-16 21:00N 37°49' W 122°25'2 4.8
2018-Jul-16 20:31N 37°47' W 122°23'5 9.0
2018-Jul-16 20:00N 37°49' W 122°27'2 4.4
2018-Jul-16 19:30N 37°49' W 122°25'0 0.0
2018-Jul-16 19:00N 37°49' W 122°25'2 4.3
2018-Jul-16 18:30N 37°48' W 122°22'5 9.1
2018-Jul-16 18:00N 37°50' W 122°28'2 4.9
2018-Jul-16 17:30N 37°49' W 122°25'1 1.7
2018-Jul-16 17:01N 37°49' W 122°25'2 3.8
2018-Jul-16 16:30N 37°49' W 122°27'2 3.8
2018-Jul-16 16:00N 37°49' W 122°25'0 0.0
2018-Jul-16 04:09N 37°49' W 122°25'0 0.0
2018-Jul-16 04:00N 37°49' W 122°25'3 6.1
2018-Jul-16 03:30N 37°49' W 122°29'3 6.3
2018-Jul-16 03:01N 37°52' W 122°30'4 7.0
2018-Jul-16 02:30N 37°52' W 122°25'3 6.6
2018-Jul-16 02:00N 37°49' W 122°25'0 0.0
2018-Jul-16 01:30N 37°49' W 122°25'0 0.0
2018-Jul-16 01:01N 37°49' W 122°25'0 0.0
2018-Jul-16 00:30N 37°49' W 122°25'2 3.8
2018-Jul-15 23:59N 37°48' W 122°23'4 8.7
2018-Jul-15 23:30N 37°49' W 122°28'2 4.5
2018-Jul-15 23:00N 37°49' W 122°25'1 2.4
2018-Jul-15 22:30N 37°48' W 122°24'2 3.0
2018-Jul-15 22:00N 37°49' W 122°25'2 3.5
2018-Jul-15 21:30N 37°49' W 122°27'1 3.0
2018-Jul-15 21:00N 37°49' W 122°25'2 4.4
2018-Jul-15 20:31N 37°47' W 122°23'5 9.3
2018-Jul-15 20:01N 37°49' W 122°28'3 5.1
2018-Jul-15 19:30N 37°49' W 122°25'0 0.0
2018-Jul-15 19:01N 37°49' W 122°25'2 3.5
2018-Jul-15 18:30N 37°48' W 122°23'5 9.6
2018-Jul-15 18:00N 37°49' W 122°29'3 6.0
2018-Jul-15 17:30N 37°49' W 122°25'1 2.5
2018-Jul-15 17:00N 37°50' W 122°25'1 2.5
2018-Jul-15 16:30N 37°49' W 122°26'1 2.5
2018-Jul-15 16:00N 37°49' W 122°25'0 0.0
2018-Jul-15 04:13N 37°49' W 122°25'0 0.0
2018-Jul-15 04:00N 37°49' W 122°25'3 5.7
2018-Jul-15 03:30N 37°50' W 122°28'2 3.9
2018-Jul-15 03:00N 37°52' W 122°28'3 5.2
2018-Jul-15 02:30N 37°52' W 122°25'3 5.9
2018-Jul-15 02:00N 37°49' W 122°25'0 0.0
2018-Jul-15 01:30N 37°49' W 122°25'0 0.0
2018-Jul-15 01:00N 37°49' W 122°25'0 0.4
2018-Jul-15 00:30N 37°49' W 122°25'1 1.8
2018-Jul-15 00:00N 37°49' W 122°24'4 7.5
2018-Jul-14 23:30N 37°49' W 122°29'3 5.9
2018-Jul-14 23:00N 37°49' W 122°25'2 3.4
2018-Jul-14 22:30N 37°48' W 122°23'3 6.1
2018-Jul-14 22:00N 37°50' W 122°26'1 1.9
2018-Jul-14 21:30N 37°49' W 122°26'1 1.4
2018-Jul-14 21:00N 37°49' W 122°25'1 3.0
2018-Jul-14 20:31N 37°48' W 122°23'4 8.5
2018-Jul-14 20:00N 37°49' W 122°28'3 5.6
2018-Jul-14 19:30N 37°49' W 122°25'0 0.0
2018-Jul-14 19:00N 37°49' W 122°25'1 2.9
2018-Jul-14 18:30N 37°48' W 122°23'4 8.6
2018-Jul-14 18:00N 37°49' W 122°28'3 5.7
2018-Jul-14 17:30N 37°49' W 122°25'1 2.0
2018-Jul-14 17:00N 37°50' W 122°25'1 2.8
2018-Jul-14 16:30N 37°49' W 122°27'1 2.8
2018-Jul-14 16:00N 37°49' W 122°25'0 0.0
2018-Jul-14 04:09N 37°49' W 122°25'0 0.0
2018-Jul-14 04:01N 37°49' W 122°25'3 5.8
2018-Jul-14 03:30N 37°49' W 122°28'2 4.4
2018-Jul-14 03:00N 37°52' W 122°29'3 5.9
2018-Jul-14 02:30N 37°51' W 122°25'3 5.6
2018-Jul-14 02:00N 37°49' W 122°25'0 0.0
2018-Jul-14 01:31N 37°49' W 122°25'0 0.0
2018-Jul-14 01:00N 37°49' W 122°25'0 0.0
2018-Jul-14 00:30N 37°49' W 122°25'2 3.4
2018-Jul-14 00:00N 37°48' W 122°23'4 8.2
2018-Jul-13 23:30N 37°49' W 122°28'2 4.8
2018-Jul-13 23:01N 37°49' W 122°25'1 2.1
2018-Jul-13 22:30N 37°48' W 122°24'2 4.0
2018-Jul-13 22:00N 37°50' W 122°25'1 2.7
2018-Jul-13 21:30N 37°49' W 122°27'1 2.9
2018-Jul-13 21:00N 37°49' W 122°25'2 3.1
2018-Jul-13 20:30N 37°48' W 122°23'4 8.3
2018-Jul-13 20:00N 37°49' W 122°28'3 5.1
2018-Jul-13 19:31N 37°49' W 122°25'0 0.0
2018-Jul-13 19:00N 37°49' W 122°25'2 3.1
2018-Jul-13 18:30N 37°48' W 122°23'4 8.9
2018-Jul-13 18:00N 37°49' W 122°28'3 5.7
2018-Jul-13 17:30N 37°49' W 122°25'1 2.1
2018-Jul-13 17:00N 37°50' W 122°25'1 2.6
2018-Jul-13 16:30N 37°49' W 122°27'1 2.8
2018-Jul-13 16:00N 37°49' W 122°25'0 0.0
2018-Jul-13 04:09N 37°49' W 122°25'0 0.0
2018-Jul-13 04:00N 37°49' W 122°25'3 6.7
2018-Jul-13 03:31N 37°49' W 122°29'3 5.4
2018-Jul-13 03:00N 37°52' W 122°29'3 6.2
2018-Jul-13 02:30N 37°52' W 122°25'3 5.9
2018-Jul-13 02:00N 37°49' W 122°25'0 0.0
2018-Jul-13 01:30N 37°49' W 122°25'0 0.0
2018-Jul-13 01:00N 37°49' W 122°25'0 0.0
2018-Jul-13 00:30N 37°49' W 122°25'2 3.8
2018-Jul-13 00:00N 37°48' W 122°23'4 9.0
2018-Jul-12 23:30N 37°49' W 122°28'3 5.3
2018-Jul-12 23:00N 37°49' W 122°25'1 2.6
2018-Jul-12 22:30N 37°48' W 122°23'2 4.9
2018-Jul-12 22:00N 37°50' W 122°25'1 2.1
2018-Jul-12 21:30N 37°49' W 122°26'1 1.6
2018-Jul-12 21:00N 37°49' W 122°25'2 3.0
2018-Jul-12 20:30N 37°49' W 122°23'5 9.6
2018-Jul-12 20:01N 37°49' W 122°29'3 6.6
2018-Jul-12 19:30N 37°49' W 122°25'0 0.0
2018-Jul-12 19:00N 37°49' W 122°25'2 4.7
2018-Jul-12 18:30N 37°47' W 122°23'5 9.9
2018-Jul-12 18:01N 37°49' W 122°28'3 5.4
2018-Jul-12 17:30N 37°49' W 122°25'1 1.9
2018-Jul-12 17:00N 37°50' W 122°25'1 2.9
2018-Jul-12 16:31N 37°49' W 122°26'1 2.4
2018-Jul-12 16:00N 37°49' W 122°25'0 0.0
2018-Jul-12 04:12N 37°49' W 122°25'0 0.0
2018-Jul-12 03:59N 37°49' W 122°25'4 8.1
2018-Jul-12 03:30N 37°49' W 122°30'3 5.3
2018-Jul-12 03:00N 37°52' W 122°29'3 6.2
2018-Jul-12 02:30N 37°51' W 122°25'2 4.9
2018-Jul-12 02:00N 37°49' W 122°25'0 0.0
2018-Jul-12 01:30N 37°49' W 122°25'0 0.0
2018-Jul-12 01:00N 37°49' W 122°25'0 0.0
2018-Jul-12 00:30N 37°49' W 122°25'2 3.5
2018-Jul-12 00:00N 37°48' W 122°23'4 7.7
2018-Jul-11 23:30N 37°49' W 122°27'2 4.2
2018-Jul-11 23:00N 37°49' W 122°25'1 2.6
2018-Jul-11 22:30N 37°48' W 122°23'2 4.2
2018-Jul-11 22:00N 37°50' W 122°25'2 4.0
2018-Jul-11 21:30N 37°49' W 122°27'2 4.1
2018-Jul-11 21:00N 37°49' W 122°25'2 4.0
2018-Jul-11 20:30N 37°48' W 122°23'4 8.3
2018-Jul-11 20:00N 37°49' W 122°27'2 4.4
2018-Jul-11 19:30N 37°49' W 122°25'0 0.0
2018-Jul-11 19:00N 37°49' W 122°25'2 4.5
2018-Jul-11 18:30N 37°47' W 122°23'4 8.5
2018-Jul-11 18:00N 37°49' W 122°27'2 4.1
2018-Jul-11 17:30N 37°49' W 122°25'1 1.6
2018-Jul-11 17:00N 37°49' W 122°24'2 4.1
2018-Jul-11 16:30N 37°49' W 122°27'2 3.4
2018-Jul-11 16:00N 37°49' W 122°25'0 0.0
2018-Jul-11 04:12N 37°49' W 122°25'0 0.0
2018-Jul-11 04:00N 37°49' W 122°25'3 6.2
2018-Jul-11 03:30N 37°49' W 122°29'3 5.5
2018-Jul-11 03:00N 37°52' W 122°29'3 6.7
2018-Jul-11 02:30N 37°51' W 122°25'3 5.2
2018-Jul-11 02:00N 37°49' W 122°25'0 0.0
2018-Jul-11 01:30N 37°49' W 122°25'0 0.0
2018-Jul-11 01:00N 37°49' W 122°25'0 0.0
2018-Jul-11 00:30N 37°49' W 122°25'2 3.8
2018-Jul-11 00:00N 37°48' W 122°23'4 8.3
2018-Jul-10 23:30N 37°49' W 122°28'2 4.4
2018-Jul-10 23:00N 37°49' W 122°25'1 1.9
2018-Jul-10 22:30N 37°48' W 122°24'1 2.5
2018-Jul-10 22:00N 37°49' W 122°25'2 4.1
2018-Jul-10 21:30N 37°49' W 122°27'2 3.7
2018-Jul-10 21:00N 37°49' W 122°25'2 3.1
2018-Jul-10 20:30N 37°48' W 122°23'4 8.2
2018-Jul-10 20:00N 37°49' W 122°28'3 5.1
2018-Jul-10 19:30N 37°49' W 122°25'0 0.0
2018-Jul-10 19:00N 37°49' W 122°25'0 0.0
2018-Jul-10 18:30N 37°49' W 122°25'1 2.6
2018-Jul-10 18:00N 37°50' W 122°25'0 0.4
2018-Jul-10 17:30N 37°50' W 122°25'0 0.7
2018-Jul-10 17:00N 37°50' W 122°25'2 4.8
2018-Jul-10 16:30N 37°50' W 122°28'1 2.5
2018-Jul-10 16:00N 37°49' W 122°27'2 3.5
2018-Jul-10 15:30N 37°49' W 122°25'0 0.0
2018-Jul-10 15:00N 37°49' W 122°25'0 0.0
2018-Jul-10 14:30N 37°49' W 122°25'0 0.0
2018-Jul-10 14:00N 37°49' W 122°25'0 0.0
2018-Jul-10 13:30N 37°49' W 122°25'0 0.0
2018-Jul-10 13:00N 37°49' W 122°25'0 0.0
2018-Jul-10 12:30N 37°49' W 122°25'0 0.0
2018-Jul-10 04:03N 37°49' W 122°25'0 0.0
2018-Jul-10 04:00N 37°49' W 122°25'3 6.0
2018-Jul-10 03:30N 37°49' W 122°29'3 5.8
2018-Jul-10 03:00N 37°52' W 122°29'3 6.2
2018-Jul-10 02:30N 37°52' W 122°25'3 6.1
2018-Jul-10 02:00N 37°49' W 122°25'0 0.0
2018-Jul-10 01:30N 37°49' W 122°25'0 0.0
2018-Jul-10 01:00N 37°49' W 122°25'0 0.0
2018-Jul-10 00:30N 37°49' W 122°25'2 4.6
2018-Jul-10 00:00N 37°47' W 122°23'4 8.4
2018-Jul-09 23:31N 37°49' W 122°27'2 3.8
2018-Jul-09 23:00N 37°49' W 122°25'1 2.2
2018-Jul-09 22:29N 37°48' W 122°24'1 3.0
2018-Jul-09 22:00N 37°49' W 122°25'2 4.3
2018-Jul-09 21:31N 37°49' W 122°27'2 3.7
2018-Jul-09 21:00N 37°49' W 122°25'2 3.9
2018-Jul-09 20:31N 37°48' W 122°23'4 8.6
2018-Jul-09 20:00N 37°49' W 122°28'2 4.7
2018-Jul-09 19:30N 37°49' W 122°25'0 0.0
2018-Jul-09 18:59N 37°49' W 122°25'2 3.9
2018-Jul-09 18:30N 37°48' W 122°23'5 9.1
2018-Jul-09 18:00N 37°50' W 122°28'3 5.3
2018-Jul-09 17:30N 37°49' W 122°25'1 1.8
2018-Jul-09 17:00N 37°49' W 122°25'2 3.5
2018-Jul-09 16:30N 37°49' W 122°27'2 3.2
2018-Jul-09 15:56N 37°49' W 122°25'0 0.0
2018-Jul-09 04:19N 37°49' W 122°25'0 0.6
2018-Jul-09 04:00N 37°49' W 122°25'3 5.6
2018-Jul-09 03:31N 37°49' W 122°29'3 5.3
2018-Jul-09 03:00N 37°52' W 122°29'3 5.8
2018-Jul-09 02:30N 37°52' W 122°25'3 6.1
2018-Jul-09 02:00N 37°49' W 122°25'0 0.0
2018-Jul-09 01:30N 37°49' W 122°25'0 0.0
2018-Jul-09 01:00N 37°49' W 122°25'0 0.0
2018-Jul-09 00:30N 37°49' W 122°25'2 4.6
2018-Jul-09 00:00N 37°47' W 122°23'5 9.1
2018-Jul-08 23:30N 37°49' W 122°28'2 4.6
2018-Jul-08 23:00N 37°49' W 122°25'1 2.1
2018-Jul-08 22:30N 37°48' W 122°24'1 2.7
2018-Jul-08 22:00N 37°49' W 122°25'2 4.2
2018-Jul-08 21:30N 37°49' W 122°27'2 3.9
2018-Jul-08 21:00N 37°49' W 122°25'2 4.2
2018-Jul-08 20:30N 37°47' W 122°23'4 8.1
2018-Jul-08 20:00N 37°50' W 122°27'2 3.9
2018-Jul-08 19:30N 37°49' W 122°25'0 0.0
2018-Jul-08 19:00N 37°49' W 122°25'1 2.6
2018-Jul-08 18:30N 37°49' W 122°23'4 7.9
2018-Jul-08 18:00N 37°49' W 122°28'3 5.6
2018-Jul-08 17:30N 37°49' W 122°25'1 1.9
2018-Jul-08 17:00N 37°50' W 122°25'1 2.9
2018-Jul-08 16:30N 37°49' W 122°27'2 3.3
2018-Jul-08 16:00N 37°49' W 122°25'0 0.0
2018-Jul-08 04:13N 37°49' W 122°25'0 0.2
2018-Jul-08 04:00N 37°49' W 122°25'3 5.6
2018-Jul-08 03:30N 37°50' W 122°28'2 3.9
2018-Jul-08 03:00N 37°52' W 122°28'3 5.4
2018-Jul-08 02:30N 37°51' W 122°25'3 5.6
2018-Jul-08 02:00N 37°49' W 122°25'0 0.0
2018-Jul-08 01:31N 37°49' W 122°25'0 0.0
2018-Jul-08 01:01N 37°49' W 122°25'0 0.8
2018-Jul-08 00:31N 37°49' W 122°25'0 0.9
2018-Jul-08 00:01N 37°49' W 122°24'3 5.9
2018-Jul-07 23:30N 37°49' W 122°28'2 4.9
2018-Jul-07 23:01N 37°49' W 122°25'2 3.2
2018-Jul-07 22:31N 37°48' W 122°23'3 5.7
2018-Jul-07 22:01N 37°50' W 122°26'1 1.7
2018-Jul-07 21:31N 37°49' W 122°26'1 1.8
2018-Jul-07 21:00N 37°49' W 122°25'1 2.6
2018-Jul-07 20:30N 37°48' W 122°23'4 8.3
2018-Jul-07 20:01N 37°49' W 122°28'3 5.6
2018-Jul-07 19:30N 37°49' W 122°25'0 0.0
2018-Jul-07 19:00N 37°49' W 122°25'1 2.3
2018-Jul-07 18:30N 37°49' W 122°23'4 8.1
2018-Jul-07 18:00N 37°49' W 122°29'3 6.1
2018-Jul-07 17:31N 37°49' W 122°25'1 2.1
2018-Jul-07 17:01N 37°50' W 122°25'2 3.1
2018-Jul-07 16:30N 37°49' W 122°27'2 3.4
2018-Jul-07 16:00N 37°49' W 122°25'0 0.0
2018-Jul-07 04:18N 37°49' W 122°25'0 0.0
2018-Jul-07 04:00N 37°49' W 122°25'  

Dump ship's entire track history